Weather at Ewo Airport

Public forecast

Using degrees Celsius for public forecast. Weather courtesy of forecast.io.

Current aviation weather report (METAR) for Ewo Airport

Report is more than 6 hours old.

Retrieved 2017/03/27 15:00 UTC (5 years ago):

FCOE 271500Z 04006KT 7000 HZ NSC 35/22 Q////

Closest aviation forecast (TAF) to Ewo Airport

Forecast is more than 12 hours old.

Closest forecast is M'Vengue El Hadj Omar Bongo Ondimba International Airport, 94.0 nm (174.1 km) WSW. Retrieved 2012/02/16 18:00 UTC (10 years ago):

TAF FOON 151600Z 1518/1618 20004KT 9999 BKN006 TEMPO 1603/1607 0200 FG OVC002 BECMG 1612/1614 TS SCT015 FEW020CB BKN030